Time;durP1;ratioP1;P1;durP2;ratioP2;P2;SDS_P1;SDS_P2;PMS_P1;PMS_P2;Temp;Humidity;BMP_temperature;BMP_pressure;BME280_temperature;BME280_humidity;BME280_pressure;Samples;Min_cycle;Max_cycle;Signal;HPM_P1;HPM_P2
2023/02/05 00:02:03;;;;;;;2.20;1.40;;;;;;;-0.76;63.26;99400.25;7507163;23;20218;-58
2023/02/05 00:05:05;;;;;;;3.00;1.03;;;;;;;-0.87;62.83;99374.97;7508244;23;20218;-58
2023/02/05 00:08:07;;;;;;;3.37;1.30;;;;;;;-0.68;62.70;99418.78;7507396;23;20234;-57
2023/02/05 00:11:09;;;;;;;1.43;1.10;;;;;;;-0.64;62.34;99423.63;7504979;23;20299;-58
2023/02/05 00:14:11;;;;;;;2.60;1.10;;;;;;;-0.61;61.96;99425.13;7507619;23;20220;-58
2023/02/05 00:17:13;;;;;;;1.70;1.20;;;;;;;-0.60;61.96;99427.63;7507450;23;20261;-58
2023/02/05 00:20:15;;;;;;;1.40;1.10;;;;;;;-0.61;60.95;99430.38;7506115;23;20214;-59
2023/02/05 00:23:17;;;;;;;1.20;1.10;;;;;;;-0.57;59.39;99429.16;7505450;23;20530;-55
2023/02/05 00:26:19;;;;;;;2.27;1.37;;;;;;;-0.63;60.00;99427.91;7509269;23;20216;-57
2023/02/05 00:29:21;;;;;;;3.27;1.10;;;;;;;-0.57;59.82;99430.00;7507740;23;20210;-59
2023/02/05 00:32:23;;;;;;;2.50;1.00;;;;;;;-0.51;58.96;99428.66;7507080;23;20222;-56
2023/02/05 00:35:25;;;;;;;2.60;1.10;;;;;;;-0.49;57.80;99434.59;7509272;23;20588;-54
2023/02/05 00:38:28;;;;;;;2.87;1.20;;;;;;;-0.49;56.98;99434.59;7510354;23;20241;-58
2023/02/05 00:41:30;;;;;;;1.83;1.03;;;;;;;-0.54;56.60;99435.00;7514533;23;20223;-58
2023/02/05 00:44:32;;;;;;;1.13;0.90;;;;;;;-0.76;56.22;99406.31;7513190;23;20221;-55
2023/02/05 00:47:34;;;;;;;2.67;1.00;;;;;;;-0.65;55.80;99444.66;7508656;23;20297;-57
2023/02/05 00:50:36;;;;;;;1.13;0.97;;;;;;;-0.73;54.94;99439.25;7509017;23;20214;-56
2023/02/05 00:53:38;;;;;;;1.57;1.10;;;;;;;-0.90;55.39;99462.38;7507012;23;20571;-55
2023/02/05 00:56:40;;;;;;;1.10;0.80;;;;;;;-0.89;53.78;99452.75;7508005;23;20215;-57
2023/02/05 00:59:42;;;;;;;2.40;1.00;;;;;;;-0.93;55.19;99453.97;7505054;23;20221;-58
2023/02/05 01:02:44;;;;;;;1.63;0.93;;;;;;;-0.90;54.90;99462.38;7507693;23;20668;-58
2023/02/05 01:05:47;;;;;;;2.23;0.90;;;;;;;-0.93;53.99;99454.81;7507161;23;20206;-52
2023/02/05 01:08:49;;;;;;;2.17;1.00;;;;;;;-0.80;54.53;99467.69;7509153;23;20214;-57
2023/02/05 01:11:51;;;;;;;1.73;1.20;;;;;;;-0.79;53.79;99454.50;7508613;23;20210;-57
2023/02/05 01:14:53;;;;;;;0.97;0.80;;;;;;;-0.92;53.19;99459.06;7508021;23;20671;-58
2023/02/05 01:17:57;;;;;;;1.63;0.90;;;;;;;-0.95;53.88;99461.09;7504798;23;20220;-58
2023/02/05 01:20:59;;;;;;;1.17;1.03;;;;;;;-0.95;52.36;99467.16;7503974;23;20214;-57
2023/02/05 01:24:01;;;;;;;1.93;0.90;;;;;;;-1.09;51.24;99476.09;7506751;23;20206;-57
2023/02/05 01:27:03;;;;;;;1.33;0.87;;;;;;;-1.25;52.13;99435.63;7506677;23;20257;-58
2023/02/05 01:30:06;;;;;;;1.93;0.80;;;;;;;-1.03;52.02;99480.03;7481039;23;20314;-58
2023/02/05 01:33:08;;;;;;;2.63;0.80;;;;;;;-1.22;52.82;99454.53;7505153;23;20266;-55
2023/02/05 01:36:10;;;;;;;2.10;0.83;;;;;;;-1.08;52.46;99472.56;7507764;23;20182;-58
2023/02/05 01:39:12;;;;;;;0.93;0.77;;;;;;;-1.11;52.13;99469.34;7508636;23;20178;-59
2023/02/05 01:42:21;;;;;;;0.80;0.70;;;;;;;-1.10;52.26;99471.00;7506214;23;20202;-56
2023/02/05 01:45:24;;;;;;;1.10;0.87;;;;;;;-1.16;51.62;99482.78;7504719;23;20215;-58
2023/02/05 01:48:31;;;;;;;1.63;1.03;;;;;;;-1.15;52.57;99475.78;7506829;23;20261;-55
2023/02/05 01:51:36;;;;;;;1.47;0.83;;;;;;;-1.12;53.59;99479.00;7509612;23;20551;-57
2023/02/05 01:54:42;;;;;;;2.17;1.17;;;;;;;-1.00;53.14;99477.16;7507356;23;20730;-57
2023/02/05 01:57:45;;;;;;;1.10;0.80;;;;;;;-0.98;53.75;99466.59;7504888;23;20302;-60
2023/02/05 02:00:47;;;;;;;1.40;1.10;;;;;;;-0.99;52.75;99464.91;7504432;23;20221;-54
2023/02/05 02:03:53;;;;;;;1.10;0.80;;;;;;;-0.96;53.55;99469.91;7506577;23;20214;-59
2023/02/05 02:06:55;;;;;;;2.57;1.03;;;;;;;-1.96;52.57;99320.25;7506453;23;20226;-54
2023/02/05 02:09:57;;;;;;;2.47;1.00;;;;;;;-1.00;53.17;99473.72;7503896;23;20214;-56
2023/02/05 02:13:00;;;;;;;1.50;0.80;;;;;;;-1.07;53.11;99453.28;7507132;23;20560;-58
2023/02/05 02:16:04;;;;;;;1.63;0.80;;;;;;;-0.97;53.05;99476.09;7506208;23;20293;-58
2023/02/05 02:19:17;;;;;;;1.40;1.20;;;;;;;-0.90;52.93;99488.53;7504846;23;20562;-57
2023/02/05 02:22:22;;;;;;;1.53;1.10;;;;;;;-0.93;52.92;99491.41;7502562;23;20301;-53
2023/02/05 02:25:51;;;;;;;1.63;1.07;;;;;;;-0.88;52.58;99494.50;7503586;23;20662;-57
2023/02/05 02:29:01;;;;;;;1.70;0.80;;;;;;;-0.80;51.51;99507.75;7501330;23;20616;-57
2023/02/05 02:32:25;;;;;;;1.80;0.83;;;;;;;-0.77;51.25;99509.31;7503924;23;20246;-57
2023/02/05 02:35:46;;;;;;;1.27;0.80;;;;;;;-0.93;50.49;99514.13;7500026;23;20591;-58
2023/02/05 02:38:49;;;;;;;2.00;1.20;;;;;;;-0.92;51.40;99521.03;7501450;23;20215;-56
2023/02/05 02:42:01;;;;;;;2.07;0.80;;;;;;;-1.13;51.13;99515.72;7501734;23;20220;-58
2023/02/05 02:45:08;;;;;;;2.33;1.20;;;;;;;-1.09;52.10;99527.59;7499872;23;20278;-58
2023/02/05 02:48:12;;;;;;;0.90;0.73;;;;;;;-1.18;52.07;99521.31;7502975;23;20211;-57
2023/02/05 02:51:16;;;;;;;1.63;0.90;;;;;;;-1.20;51.91;99528.44;7504730;23;20179;-57
2023/02/05 02:54:21;;;;;;;1.27;0.70;;;;;;;-1.44;51.86;99528.59;7503857;23;20242;-57
2023/02/05 02:57:28;;;;;;;2.13;1.00;;;;;;;-1.69;52.49;99489.63;7504790;23;20210;-56
2023/02/05 03:00:31;;;;;;;1.50;0.67;;;;;;;-1.41;52.64;99520.50;7503875;23;20210;-55
2023/02/05 03:03:39;;;;;;;1.70;1.00;;;;;;;-1.53;52.81;99520.63;7505824;23;20214;-56
2023/02/05 03:06:47;;;;;;;0.97;0.70;;;;;;;-1.62;53.62;99522.19;7504148;23;20217;-58
2023/02/05 03:10:19;;;;;;;2.87;1.00;;;;;;;-1.84;53.74;99497.72;7504026;23;20287;-58
2023/02/05 03:13:21;;;;;;;2.30;1.00;;;;;;;-1.94;53.83;99494.16;7505031;23;20210;-57
2023/02/05 03:16:29;;;;;;;1.87;1.30;;;;;;;-1.73;54.38;99523.00;7503323;23;20293;-55
2023/02/05 03:19:32;;;;;;;1.93;1.10;;;;;;;-1.81;55.45;99522.78;7503262;23;20221;-55
2023/02/05 03:22:34;;;;;;;3.10;1.50;;;;;;;-1.85;54.65;99535.22;7501157;23;20218;-57
2023/02/05 03:25:36;;;;;;;1.27;1.00;;;;;;;-1.91;54.65;99517.44;7505131;23;20234;-56
2023/02/05 03:28:42;;;;;;;1.73;1.27;;;;;;;-1.99;55.41;99526.78;7505571;23;20552;-56
2023/02/05 03:32:02;;;;;;;1.67;1.13;;;;;;;-2.08;56.97;99530.91;7503216;23;20713;-56
2023/02/05 03:35:55;;;;;;;2.37;1.30;;;;;;;-2.10;57.16;99517.16;7505057;23;20274;-58
2023/02/05 03:39:16;;;;;;;1.60;1.20;;;;;;;-2.07;57.02;99516.91;7405432;23;20216;-57
2023/02/05 03:42:41;;;;;;;2.63;1.37;;;;;;;-2.06;57.00;99517.78;7404504;23;20379;-56
2023/02/05 03:46:06;;;;;;;2.37;1.20;;;;;;;-2.11;56.85;99518.13;7414135;23;20244;-57
2023/02/05 03:49:28;;;;;;;1.23;0.90;;;;;;;-2.07;56.44;99511.69;7404663;23;20223;-57
2023/02/05 03:52:34;;;;;;;1.23;0.83;;;;;;;-2.18;56.87;99496.00;7405665;23;20814;-54
2023/02/05 03:55:44;;;;;;;1.50;1.10;;;;;;;-2.24;55.92;99507.75;7405859;23;20295;-56
2023/02/05 03:58:52;;;;;;;1.17;0.90;;;;;;;-2.34;56.15;99493.72;7406736;23;20225;-55
2023/02/05 04:01:55;;;;;;;1.33;0.77;;;;;;;-2.82;56.31;99397.31;7405619;23;20223;-57
2023/02/05 04:04:57;;;;;;;2.73;0.90;;;;;;;-2.10;54.55;99525.00;7429215;23;20464;-57
2023/02/05 04:08:00;;;;;;;1.27;1.00;;;;;;;-2.14;55.64;99536.63;7410539;23;20243;-57
2023/02/05 04:11:09;;;;;;;1.57;0.90;;;;;;;-2.25;55.23;99540.03;7503050;23;20293;-57
2023/02/05 04:14:12;;;;;;;1.63;0.93;;;;;;;-2.30;54.96;99543.94;7502683;23;20214;-57
2023/02/05 04:17:17;;;;;;;0.83;0.70;;;;;;;-2.24;54.61;99549.53;7478593;23;20222;-57
2023/02/05 04:20:20;;;;;;;1.17;1.07;;;;;;;-2.32;54.76;99541.41;7501221;23;20222;-57
2023/02/05 04:23:22;;;;;;;1.43;0.67;;;;;;;-2.30;55.38;99541.31;7504928;23;20270;-57
2023/02/05 04:26:25;;;;;;;0.60;0.60;;;;;;;-2.53;55.54;99514.31;7504310;23;20293;-56
2023/02/05 04:29:34;;;;;;;2.13;1.00;;;;;;;-2.36;54.05;99537.41;7503479;23;20266;-56
2023/02/05 04:32:38;;;;;;;1.50;0.60;;;;;;;-2.34;54.88;99546.75;7479821;23;20733;-57
2023/02/05 04:35:40;;;;;;;0.60;0.60;;;;;;;-2.37;55.87;99540.94;7503825;23;20218;-56
2023/02/05 04:38:42;;;;;;;1.13;0.70;;;;;;;-2.37;56.05;99546.16;7502066;23;20222;-57
2023/02/05 04:41:45;;;;;;;3.90;1.10;;;;;;;-2.32;55.91;99541.41;7503194;23;20549;-56
2023/02/05 04:44:47;;;;;;;4.67;0.87;;;;;;;-2.49;56.20;99521.81;7506241;23;20733;-56
2023/02/05 04:47:49;;;;;;;1.20;0.63;;;;;;;-2.51;55.48;99543.72;7507263;23;20242;-55
2023/02/05 04:50:50;;;;;;;2.70;1.00;;;;;;;-2.60;54.57;99542.66;7506619;23;20217;-55
2023/02/05 04:53:53;;;;;;;1.17;0.80;;;;;;;-2.62;55.61;99545.34;7509823;23;20646;-54
2023/02/05 04:56:55;;;;;;;1.73;1.13;;;;;;;-2.62;55.67;99542.72;7512330;23;20386;-52
2023/02/05 04:59:57;;;;;;;1.30;0.90;;;;;;;-2.72;55.49;99541.75;7510453;23;20297;-56
2023/02/05 05:02:59;;;;;;;1.50;1.03;;;;;;;-2.75;55.05;99546.38;7510172;23;20289;-55
2023/02/05 05:06:05;;;;;;;2.50;0.90;;;;;;;-2.73;55.03;99540.09;7511283;23;20221;-54
2023/02/05 05:09:07;;;;;;;2.23;0.80;;;;;;;-2.67;55.81;99550.06;7505138;23;20179;-55
2023/02/05 05:12:09;;;;;;;1.23;0.93;;;;;;;-2.66;55.96;99535.25;7504192;23;20189;-57
2023/02/05 05:15:11;;;;;;;2.37;0.90;;;;;;;-3.02;57.04;99492.66;7504927;23;20205;-56
2023/02/05 05:18:13;;;;;;;1.93;0.80;;;;;;;-2.95;57.59;99527.78;7503255;23;20314;-54
2023/02/05 05:21:15;;;;;;;2.70;1.03;;;;;;;-2.97;57.38;99527.03;7503565;23;20245;-57
2023/02/05 05:24:17;;;;;;;2.77;1.20;;;;;;;-3.02;58.03;99536.13;7504896;23;20261;-57
2023/02/05 05:27:21;;;;;;;1.10;0.80;;;;;;;-2.98;57.27;99529.75;7504465;23;20187;-56
2023/02/05 05:30:24;;;;;;;1.70;0.90;;;;;;;-3.00;56.23;99529.88;7503309;23;20294;-57
2023/02/05 05:33:26;;;;;;;2.40;1.00;;;;;;;-3.08;57.54;99544.41;7503758;23;20668;-55
2023/02/05 05:36:29;;;;;;;3.13;1.00;;;;;;;-3.38;56.97;99489.13;7502432;23;20290;-56
2023/02/05 05:46:20;;;;;;;1.93;0.97;;;;;;;-3.11;56.87;99525.41;7503508;23;20679;-56
2023/02/05 05:49:22;;;;;;;1.60;1.03;;;;;;;-3.39;56.95;99495.28;7503127;23;20599;-52
2023/02/05 05:52:24;;;;;;;2.13;0.93;;;;;;;-3.13;56.21;99536.91;7511759;23;20215;-54
2023/02/05 05:55:27;;;;;;;3.33;1.30;;;;;;;-3.19;56.37;99540.78;7507742;23;20214;-56
2023/02/05 05:58:29;;;;;;;2.00;0.90;;;;;;;-3.17;56.73;99532.84;7505511;23;20214;-56
2023/02/05 06:01:31;;;;;;;1.53;0.70;;;;;;;-3.17;56.40;99541.50;7503476;23;20224;-57
2023/02/05 06:04:33;;;;;;;1.53;0.90;;;;;;;-3.14;56.78;99533.47;7503073;23;20206;-55
2023/02/05 06:07:35;;;;;;;0.93;0.80;;;;;;;-3.43;56.62;99501.66;7502903;23;20753;-55
2023/02/05 06:10:37;;;;;;;0.83;0.77;;;;;;;-3.08;56.33;99547.00;7503617;23;20214;-56
2023/02/05 06:13:40;;;;;;;1.13;0.80;;;;;;;-3.12;56.13;99554.22;7504296;23;20237;-55
2023/02/05 06:16:42;;;;;;;1.13;0.80;;;;;;;-3.06;56.73;99569.41;7504784;23;20206;-56
2023/02/05 06:19:44;;;;;;;4.27;1.07;;;;;;;-3.03;56.81;99570.97;7502875;23;20246;-55
2023/02/05 06:22:46;;;;;;;1.77;0.90;;;;;;;-3.04;56.95;99564.09;7501731;23;20609;-54
2023/02/05 06:25:48;;;;;;;1.37;0.97;;;;;;;-3.14;57.23;99567.34;7501273;23;20242;-55
2023/02/05 06:28:50;;;;;;;2.57;1.33;;;;;;;-3.21;57.22;99562.66;7502314;23;20214;-54
2023/02/05 06:31:52;;;;;;;1.53;1.10;;;;;;;-3.21;57.67;99554.84;7503203;23;20672;-56
2023/02/05 06:34:54;;;;;;;1.70;0.93;;;;;;;-3.27;57.57;99531.84;7501801;23;20214;-55
2023/02/05 06:37:56;;;;;;;1.17;0.97;;;;;;;-3.06;57.25;99561.59;7502596;23;20218;-56
2023/02/05 06:40:58;;;;;;;1.00;0.77;;;;;;;-2.98;56.56;99564.50;7501337;23;20233;-57
2023/02/05 06:44:02;;;;;;;1.93;1.07;;;;;;;-2.93;57.15;99570.22;7503742;23;20225;-55
2023/02/05 06:47:04;;;;;;;2.07;0.90;;;;;;;-2.93;55.82;99566.78;7502196;23;20223;-57
2023/02/05 06:50:06;;;;;;;1.20;0.90;;;;;;;-2.90;55.49;99579.59;7501334;23;20293;-56
2023/02/05 06:53:09;;;;;;;1.57;0.87;;;;;;;-2.88;55.52;99580.31;7503743;23;20206;-57
2023/02/05 06:56:12;;;;;;;1.47;0.87;;;;;;;-2.90;55.34;99562.19;7501979;23;20217;-55
2023/02/05 06:59:14;;;;;;;2.07;0.90;;;;;;;-2.75;55.75;99580.28;7503156;23;20238;-56
2023/02/05 07:02:16;;;;;;;2.33;1.23;;;;;;;-2.83;55.83;99574.78;7503006;23;20214;-57
2023/02/05 07:05:18;;;;;;;1.23;1.00;;;;;;;-2.80;56.74;99574.56;7504530;23;20273;-55
2023/02/05 07:08:20;;;;;;;2.67;1.00;;;;;;;-2.69;55.94;99585.88;7502248;23;20238;-55
2023/02/05 07:11:22;;;;;;;0.90;0.80;;;;;;;-2.64;56.57;99581.16;7503845;23;20294;-54
2023/02/05 07:14:24;;;;;;;1.60;0.97;;;;;;;-2.60;55.63;99589.59;7503030;23;20852;-56
2023/02/05 07:17:26;;;;;;;1.10;0.90;;;;;;;-2.75;56.23;99595.94;7500424;23;20242;-55
2023/02/05 07:20:29;;;;;;;1.10;1.00;;;;;;;-2.70;56.65;99592.03;7500594;23;20293;-56
2023/02/05 07:23:31;;;;;;;2.07;0.90;;;;;;;-2.74;55.56;99587.97;7501636;23;20222;-56
2023/02/05 07:26:34;;;;;;;2.67;0.90;;;;;;;-2.72;55.41;99588.69;7501718;23;20210;-54
2023/02/05 07:29:36;;;;;;;1.57;1.00;;;;;;;-2.72;56.44;99577.44;7504006;23;20313;-55
2023/02/05 07:32:38;;;;;;;1.53;0.80;;;;;;;-2.78;56.40;99576.09;7503237;23;20553;-57
2023/02/05 07:35:41;;;;;;;2.77;0.80;;;;;;;-2.83;56.51;99577.38;7502776;23;20210;-57
2023/02/05 07:38:44;;;;;;;1.57;0.80;;;;;;;-2.74;56.44;99577.53;7503181;23;20237;-57
2023/02/05 07:41:46;;;;;;;0.70;0.50;;;;;;;-2.72;56.78;99583.47;7504317;23;20952;-55
2023/02/05 07:44:59;;;;;;;1.17;0.73;;;;;;;-2.86;54.76;99568.84;7505095;23;20206;-56
2023/02/05 07:48:01;;;;;;;1.53;0.90;;;;;;;-2.57;54.53;99580.69;7503619;23;20297;-57
2023/02/05 07:51:04;;;;;;;3.50;1.20;;;;;;;-2.47;53.46;99584.31;7504463;23;20185;-56
2023/02/05 07:54:08;;;;;;;2.07;0.97;;;;;;;-2.40;53.32;99588.97;7505812;23;20234;-55
2023/02/05 07:57:10;;;;;;;1.73;0.80;;;;;;;-2.53;52.44;99593.41;7504717;23;20182;-57
2023/02/05 08:00:12;;;;;;;1.00;0.83;;;;;;;-2.48;53.53;99590.47;7506221;23;20269;-56
2023/02/05 08:03:14;;;;;;;1.87;0.97;;;;;;;-2.42;52.77;99585.63;7504213;23;20269;-57
2023/02/05 08:06:16;;;;;;;0.90;0.80;;;;;;;-2.37;53.01;99595.72;7505276;23;20196;-56
2023/02/05 08:09:18;;;;;;;1.23;0.77;;;;;;;-2.30;53.13;99601.34;7504716;23;20183;-58
2023/02/05 08:12:20;;;;;;;1.00;0.80;;;;;;;-2.18;53.22;99600.44;7504414;23;20301;-57
2023/02/05 08:15:23;;;;;;;2.63;1.00;;;;;;;-2.05;52.93;99609.03;7505332;23;20282;-57
2023/02/05 08:18:25;;;;;;;1.60;0.80;;;;;;;-2.00;52.42;99606.91;7504302;23;20277;-54
2023/02/05 08:21:27;;;;;;;1.67;0.80;;;;;;;-2.02;51.62;99602.72;7503772;23;20218;-54
2023/02/05 08:24:30;;;;;;;2.07;1.10;;;;;;;-2.00;51.47;99612.13;7504144;23;20289;-53
2023/02/05 08:27:34;;;;;;;1.87;1.00;;;;;;;-1.98;51.75;99607.63;7505992;23;20214;-56
2023/02/05 08:30:38;;;;;;;1.63;0.80;;;;;;;-1.89;51.51;99622.59;7504334;23;20297;-56
2023/02/05 08:33:40;;;;;;;4.07;2.10;;;;;;;-1.97;51.11;99611.91;7503812;23;20213;-55
2023/02/05 08:36:42;;;;;;;3.70;1.43;;;;;;;-1.92;51.74;99622.84;7503623;23;20589;-54
2023/02/05 08:39:45;;;;;;;2.67;1.10;;;;;;;-1.92;50.85;99615.03;7503481;23;20398;-57
2023/02/05 08:42:51;;;;;;;1.90;1.13;;;;;;;-1.86;51.44;99618.94;7505992;23;20222;-56
2023/02/05 08:45:53;;;;;;;2.43;1.27;;;;;;;-2.01;51.24;99571.31;7505500;23;20210;-57
2023/02/05 08:48:55;;;;;;;2.43;0.97;;;;;;;-1.91;50.79;99574.06;7503804;23;20207;-57
2023/02/05 08:51:57;;;;;;;1.27;1.00;;;;;;;-1.59;50.44;99609.00;7504831;23;20241;-57
2023/02/05 08:54:59;;;;;;;2.27;0.90;;;;;;;-1.39;50.11;99614.50;7504064;23;20213;-52
2023/02/05 08:58:01;;;;;;;1.30;0.97;;;;;;;-1.29;50.25;99599.75;7505152;23;20334;-56
2023/02/05 09:01:06;;;;;;;0.97;0.70;;;;;;;-1.28;49.72;99558.75;7504557;23;20592;-56
2023/02/05 09:04:20;;;;;;;1.77;1.17;;;;;;;-0.80;49.07;99586.25;7505257;23;20249;-56
2023/02/05 09:07:23;;;;;;;2.53;0.90;;;;;;;-0.43;49.40;99588.53;7503755;23;20558;-57
2023/02/05 09:10:25;;;;;;;1.47;1.30;;;;;;;-0.27;48.71;99588.94;7503395;23;20259;-56
2023/02/05 09:13:27;;;;;;;1.53;1.10;;;;;;;-0.06;47.92;99583.72;7504546;23;20218;-57
2023/02/05 09:16:29;;;;;;;1.00;0.80;;;;;;;-0.27;46.57;99577.66;7503413;23;20214;-55
2023/02/05 09:19:37;;;;;;;2.07;1.40;;;;;;;-0.47;48.26;99545.25;7503545;23;20531;-57
2023/02/05 09:22:39;;;;;;;2.07;1.33;;;;;;;-0.05;47.40;99595.88;7502912;23;20739;-58
2023/02/05 09:25:41;;;;;;;2.07;1.20;;;;;;;-0.07;45.82;99589.94;7504071;23;20277;-58
2023/02/05 09:28:44;;;;;;;1.07;0.90;;;;;;;-0.11;47.48;99592.94;7503972;23;20589;-56
2023/02/05 09:31:46;;;;;;;2.17;1.20;;;;;;;0.02;49.95;99595.38;7502460;23;20524;-56
2023/02/05 09:34:48;;;;;;;1.77;1.10;;;;;;;-0.33;47.87;99538.88;7503701;23;20210;-57
2023/02/05 09:37:50;;;;;;;4.27;1.23;;;;;;;-0.02;46.67;99581.69;7500983;23;20214;-57
2023/02/05 09:40:59;;;;;;;1.97;1.17;;;;;;;0.70;45.54;99592.16;7504056;23;20279;-56
2023/02/05 09:44:13;;;;;;;3.23;0.93;;;;;;;1.77;43.86;99577.47;7503180;23;20276;-57
2023/02/05 09:47:28;;;;;;;1.97;1.00;;;;;;;4.30;39.38;99567.22;7502339;23;20219;-55
2023/02/05 09:50:32;;;;;;;1.67;1.10;;;;;;;6.12;34.40;99571.94;7509650;23;20214;-53
2023/02/05 09:53:41;;;;;;;2.20;1.20;;;;;;;7.28;33.04;99550.19;7504900;23;20296;-57
2023/02/05 09:56:45;;;;;;;1.67;1.00;;;;;;;8.84;30.76;99566.47;7502094;23;20806;-56
2023/02/05 09:59:47;;;;;;;2.90;1.10;;;;;;;9.41;29.38;99562.25;7503017;23;20219;-53
2023/02/05 10:02:56;;;;;;;2.13;1.23;;;;;;;9.90;28.35;99550.84;7501265;23;20678;-54
2023/02/05 10:06:20;;;;;;;1.43;0.93;;;;;;;10.92;26.55;99548.53;7503398;23;20222;-57
2023/02/05 10:09:38;;;;;;;2.23;1.30;;;;;;;10.62;26.09;99539.13;7503912;23;20730;-54
2023/02/05 10:13:04;;;;;;;2.50;0.90;;;;;;;10.15;27.71;99545.94;7502452;23;20742;-56
2023/02/05 10:16:38;;;;;;;3.10;1.10;;;;;;;10.53;25.56;99541.94;7503130;23;20285;-53
2023/02/05 10:19:46;;;;;;;3.03;0.90;;;;;;;10.96;25.15;99525.78;7502277;23;20214;-53
2023/02/05 10:23:07;;;;;;;1.63;1.10;;;;;;;8.78;26.83;99528.16;7501203;23;20603;-56
2023/02/05 10:26:13;;;;;;;2.00;1.13;;;;;;;7.22;29.79;99519.91;7502749;23;20278;-57
2023/02/05 10:29:24;;;;;;;2.40;0.70;;;;;;;5.40;31.86;99518.81;7500848;23;20218;-55
2023/02/05 10:32:57;;;;;;;3.00;0.80;;;;;;;3.84;35.04;99526.16;7502472;23;20268;-54
2023/02/05 10:36:03;;;;;;;0.97;0.90;;;;;;;2.95;34.86;99516.44;7503224;23;20235;-54
2023/02/05 10:39:13;;;;;;;2.70;0.77;;;;;;;3.36;34.96;99520.34;7502739;23;20198;-57
2023/02/05 10:42:24;;;;;;;1.30;0.80;;;;;;;3.20;35.96;99516.72;7505095;23;20179;-56
2023/02/05 10:45:28;;;;;;;1.73;0.87;;;;;;;4.58;34.47;99511.63;7501843;23;20225;-57
2023/02/05 10:48:55;;;;;;;1.47;0.80;;;;;;;6.72;32.30;99504.44;7502117;23;20218;-54
2023/02/05 10:51:57;;;;;;;1.53;0.97;;;;;;;8.24;29.33;99491.22;7504617;23;20246;-57
2023/02/05 10:54:59;;;;;;;2.23;0.90;;;;;;;9.16;28.06;99498.78;7501530;23;20222;-56
2023/02/05 10:58:26;;;;;;;2.47;0.80;;;;;;;8.88;27.28;99487.19;7502925;23;20289;-57
2023/02/05 11:01:34;;;;;;;0.70;0.60;;;;;;;8.22;28.28;99492.41;7500478;23;20553;-57
2023/02/05 11:04:51;;;;;;;1.33;0.97;;;;;;;7.53;29.76;99492.53;7505114;23;20660;-55
2023/02/05 11:07:54;;;;;;;1.70;0.70;;;;;;;6.41;31.00;99496.44;7502601;23;20213;-54
2023/02/05 11:10:56;;;;;;;1.50;0.93;;;;;;;5.85;31.71;99483.13;7502516;23;20790;-55
2023/02/05 11:14:01;;;;;;;1.10;0.90;;;;;;;5.30;32.70;99485.59;7503701;23;20224;-53
2023/02/05 11:17:16;;;;;;;1.57;1.00;;;;;;;4.09;33.72;99479.72;7506037;23;20254;-56
2023/02/05 11:20:18;;;;;;;1.00;0.80;;;;;;;3.25;35.62;99475.81;7514313;23;20222;-54
2023/02/05 11:23:23;;;;;;;1.63;0.90;;;;;;;2.64;36.96;99471.19;7506463;23;20215;-54
2023/02/05 11:26:27;;;;;;;3.87;0.67;;;;;;;2.32;37.67;99479.53;7503167;23;20266;-54
2023/02/05 11:29:29;;;;;;;1.20;0.60;;;;;;;1.98;37.57;99481.88;7503397;23;20289;-57
2023/02/05 11:32:35;;;;;;;1.53;0.80;;;;;;;1.98;38.50;99472.19;7505029;23;20222;-56
2023/02/05 11:35:37;;;;;;;0.73;0.70;;;;;;;1.92;39.02;99424.59;7506086;23;20557;-54
2023/02/05 11:38:46;;;;;;;1.43;0.97;;;;;;;2.18;38.77;99457.16;7504389;23;20309;-55
2023/02/05 11:41:50;;;;;;;1.47;1.00;;;;;;;2.35;37.77;99462.63;7504805;23;20233;-55
2023/02/05 11:44:58;;;;;;;1.83;0.90;;;;;;;2.51;38.89;99454.94;7504846;23;20215;-55
2023/02/05 11:48:05;;;;;;;0.97;0.70;;;;;;;2.57;38.76;99441.22;7504110;23;20237;-54
2023/02/05 11:51:12;;;;;;;2.87;0.80;;;;;;;2.60;37.48;99451.41;7504637;23;20683;-56
2023/02/05 11:54:26;;;;;;;1.03;0.67;;;;;;;2.74;37.44;99447.47;7504769;23;20528;-56
2023/02/05 11:57:34;;;;;;;1.43;0.60;;;;;;;2.43;37.72;99410.97;7504494;23;20583;-54
2023/02/05 12:00:50;;;;;;;0.93;0.60;;;;;;;2.55;37.09;99409.75;7504496;23;20293;-55
2023/02/05 12:04:11;;;;;;;1.10;0.60;;;;;;;2.46;38.52;99442.22;7505032;23;20703;-58
2023/02/05 12:07:17;;;;;;;1.13;0.80;;;;;;;2.32;38.89;99447.97;7504467;23;20600;-58
2023/02/05 12:10:42;;;;;;;1.47;0.70;;;;;;;2.35;38.16;99438.97;7504617;23;20601;-58
2023/02/05 12:14:19;;;;;;;1.77;0.70;;;;;;;2.30;38.24;99440.22;7508398;23;20221;-55
2023/02/05 12:17:40;;;;;;;0.80;0.70;;;;;;;1.99;39.59;99439.66;7504420;23;20248;-58
2023/02/05 12:20:48;;;;;;;1.63;0.80;;;;;;;1.88;41.00;99437.22;7504188;23;20597;-57
2023/02/05 12:24:05;;;;;;;1.33;0.73;;;;;;;1.78;42.00;99437.25;7505715;23;20223;-56
2023/02/05 12:27:24;;;;;;;0.80;0.80;;;;;;;1.53;42.49;99441.31;7503742;23;20670;-56
2023/02/05 12:31:07;;;;;;;1.40;0.97;;;;;;;1.49;42.37;99431.22;7505000;23;20221;-58
2023/02/05 12:34:35;;;;;;;1.73;0.80;;;;;;;1.43;42.86;99440.50;7503488;23;20211;-56
2023/02/05 12:37:55;;;;;;;1.80;0.73;;;;;;;1.52;41.27;99442.25;7503474;23;20220;-55
2023/02/05 12:41:09;;;;;;;1.30;1.10;;;;;;;1.31;41.75;99449.47;7505757;23;20227;-54
2023/02/05 12:44:44;;;;;;;1.03;0.70;;;;;;;1.39;42.28;99451.41;7505119;23;20219;-55
2023/02/05 12:48:10;;;;;;;1.00;0.90;;;;;;;1.43;43.20;99444.88;7501563;23;20686;-56
2023/02/05 12:51:45;;;;;;;1.90;1.17;;;;;;;1.37;44.19;99448.06;7503848;23;20217;-56
2023/02/05 12:55:02;;;;;;;1.37;0.93;;;;;;;1.33;43.74;99447.53;7502475;23;20213;-55
2023/02/05 12:58:08;;;;;;;1.30;0.90;;;;;;;1.21;44.50;99446.03;7501989;23;20224;-55
2023/02/05 13:01:16;;;;;;;1.20;1.00;;;;;;;1.00;45.51;99440.91;7505415;23;20268;-53
2023/02/05 13:04:25;;;;;;;2.07;1.00;;;;;;;0.87;45.23;99442.97;7503055;23;20279;-56
2023/02/05 13:07:36;;;;;;;2.33;1.10;;;;;;;0.90;45.56;99434.81;7502267;23;20223;-55
2023/02/05 13:11:04;;;;;;;1.30;0.97;;;;;;;0.95;44.69;99443.13;7501412;23;20787;-56
2023/02/05 13:14:12;;;;;;;1.37;0.80;;;;;;;1.19;44.36;99442.72;7501776;23;20222;-55
2023/02/05 13:17:23;;;;;;;2.33;1.10;;;;;;;1.43;44.57;99442.25;7510765;23;20230;-58
2023/02/05 13:31:38;;;;;;;3.17;1.10;;;;;;;1.15;41.70;99441.31;7503801;23;20224;-55
2023/02/05 13:34:41;;;;;;;1.47;0.93;;;;;;;1.42;42.51;99435.34;7503782;23;20765;-56
2023/02/05 13:38:12;;;;;;;2.80;1.00;;;;;;;1.55;41.40;99435.91;7502878;23;20226;-57
2023/02/05 13:41:42;;;;;;;2.57;1.03;;;;;;;1.59;42.20;99433.81;7502699;23;20219;-54
2023/02/05 13:45:10;;;;;;;2.43;1.00;;;;;;;1.48;41.33;99426.94;7503081;23;20224;-55
2023/02/05 13:49:03;;;;;;;1.90;0.83;;;;;;;1.43;41.77;99439.63;7502353;23;20300;-55
2023/02/05 13:52:29;;;;;;;0.80;0.80;;;;;;;1.49;41.78;99439.91;7503404;23;20220;-55
2023/02/05 13:55:59;;;;;;;2.43;1.00;;;;;;;1.35;42.12;99448.22;7504311;23;20216;-55
2023/02/05 13:59:11;;;;;;;1.17;0.93;;;;;;;1.36;42.37;99457.75;7503943;23;20216;-56
2023/02/05 14:02:40;;;;;;;2.27;1.00;;;;;;;1.25;42.66;99457.91;7504388;23;20611;-57
2023/02/05 14:05:43;;;;;;;1.73;1.00;;;;;;;0.97;42.41;99425.44;7503675;23;20672;-53
2023/02/05 14:08:49;;;;;;;1.37;0.90;;;;;;;1.16;42.08;99450.84;7503820;23;20295;-57
2023/02/05 14:11:58;;;;;;;1.30;0.90;;;;;;;1.01;42.35;99443.38;7504474;23;20224;-57
2023/02/05 14:15:15;;;;;;;1.30;0.93;;;;;;;1.19;43.17;99451.41;7503420;23;20216;-58
2023/02/05 14:18:39;;;;;;;0.83;0.60;;;;;;;1.14;43.25;99447.56;7502491;23;20248;-58
2023/02/05 14:21:45;;;;;;;1.43;0.90;;;;;;;1.21;43.70;99451.28;7503439;23;20239;-56
2023/02/05 14:24:49;;;;;;;1.53;1.20;;;;;;;1.08;42.42;99442.81;7503108;23;20270;-57
2023/02/05 14:27:54;;;;;;;2.33;0.97;;;;;;;1.05;43.08;99451.00;7502493;23;20210;-55
2023/02/05 14:30:59;;;;;;;2.20;1.33;;;;;;;1.19;43.02;99445.34;7503915;23;20228;-57
2023/02/05 14:34:37;;;;;;;1.10;0.80;;;;;;;1.06;43.43;99444.78;7503064;23;20222;-56
2023/02/05 14:37:41;;;;;;;2.83;0.83;;;;;;;0.88;43.42;99432.31;7461912;23;20686;-55
2023/02/05 14:41:04;;;;;;;1.00;0.90;;;;;;;0.92;43.43;99448.63;7461363;23;20691;-57
2023/02/05 14:44:12;;;;;;;1.30;1.00;;;;;;;0.81;43.58;99452.22;7460974;23;20219;-55
2023/02/05 14:47:31;;;;;;;2.07;1.07;;;;;;;0.59;44.03;99450.66;7462402;23;20215;-55
2023/02/05 14:50:36;;;;;;;1.27;0.90;;;;;;;0.55;43.68;99451.88;7464303;23;20212;-56
2023/02/05 14:53:44;;;;;;;1.40;1.00;;;;;;;0.61;43.78;99453.97;7464589;23;20211;-57
2023/02/05 14:57:33;;;;;;;1.37;1.07;;;;;;;0.55;44.79;99456.31;7439784;23;20640;-57
2023/02/05 15:00:43;;;;;;;2.03;1.20;;;;;;;0.45;44.92;99451.84;7464417;23;20305;-56
2023/02/05 15:03:45;;;;;;;2.63;1.33;;;;;;;0.36;45.74;99452.66;7464444;23;20684;-56
2023/02/05 15:06:48;;;;;;;2.73;1.40;;;;;;;0.34;46.15;99459.81;7465723;23;20238;-56